sensor_id;sensor_type;location;lat;lon;timestamp;temperature;humidity
75961;SHT30;64644;48.914;2.254;2023-06-26T00:00:29;24.82;53.79
75961;SHT30;64644;48.914;2.254;2023-06-26T00:02:55;24.79;53.58
75961;SHT30;64644;48.914;2.254;2023-06-26T00:05:20;24.77;53.89
75961;SHT30;64644;48.914;2.254;2023-06-26T00:07:46;24.73;54.38
75961;SHT30;64644;48.914;2.254;2023-06-26T00:10:11;24.72;54.27
75961;SHT30;64644;48.914;2.254;2023-06-26T00:12:36;24.68;54.15
75961;SHT30;64644;48.914;2.254;2023-06-26T00:15:02;24.63;54.40
75961;SHT30;64644;48.914;2.254;2023-06-26T00:17:27;24.65;54.64
75961;SHT30;64644;48.914;2.254;2023-06-26T00:19:53;24.63;54.72
75961;SHT30;64644;48.914;2.254;2023-06-26T00:22:18;24.58;54.42
75961;SHT30;64644;48.914;2.254;2023-06-26T00:24:44;24.59;54.82
75961;SHT30;64644;48.914;2.254;2023-06-26T00:27:10;24.52;55.10
75961;SHT30;64644;48.914;2.254;2023-06-26T00:29:35;24.48;55.19
75961;SHT30;64644;48.914;2.254;2023-06-26T00:32:01;24.45;55.35
75961;SHT30;64644;48.914;2.254;2023-06-26T00:34:26;24.42;55.38
75961;SHT30;64644;48.914;2.254;2023-06-26T00:36:51;24.39;55.49
75961;SHT30;64644;48.914;2.254;2023-06-26T00:39:17;24.35;55.62
75961;SHT30;64644;48.914;2.254;2023-06-26T00:41:42;24.31;55.71
75961;SHT30;64644;48.914;2.254;2023-06-26T00:44:08;24.31;55.83
75961;SHT30;64644;48.914;2.254;2023-06-26T00:46:34;24.24;55.87
75961;SHT30;64644;48.914;2.254;2023-06-26T00:49:00;24.20;55.96
75961;SHT30;64644;48.914;2.254;2023-06-26T00:51:27;24.16;55.85
75961;SHT30;64644;48.914;2.254;2023-06-26T00:53:53;24.16;55.85
75961;SHT30;64644;48.914;2.254;2023-06-26T00:56:19;24.13;56.03
75961;SHT30;64644;48.914;2.254;2023-06-26T00:58:45;24.09;55.91
75961;SHT30;64644;48.914;2.254;2023-06-26T01:01:11;24.06;55.96
75961;SHT30;64644;48.914;2.254;2023-06-26T01:03:40;24.07;55.82
75961;SHT30;64644;48.914;2.254;2023-06-26T01:06:07;24.03;55.98
75961;SHT30;64644;48.914;2.254;2023-06-26T01:08:36;23.97;55.66
75961;SHT30;64644;48.914;2.254;2023-06-26T01:11:02;24.00;55.87
75961;SHT30;64644;48.914;2.254;2023-06-26T01:13:28;24.01;56.10
75961;SHT30;64644;48.914;2.254;2023-06-26T01:15:55;23.97;56.38
75961;SHT30;64644;48.914;2.254;2023-06-26T01:18:21;23.93;56.51
75961;SHT30;64644;48.914;2.254;2023-06-26T01:20:47;23.92;56.37
75961;SHT30;64644;48.914;2.254;2023-06-26T01:28:22;23.83;56.03
75961;SHT30;64644;48.914;2.254;2023-06-26T01:30:48;23.82;55.98
75961;SHT30;64644;48.914;2.254;2023-06-26T01:33:15;23.75;55.82
75961;SHT30;64644;48.914;2.254;2023-06-26T01:35:41;23.67;55.64
75961;SHT30;64644;48.914;2.254;2023-06-26T01:38:17;23.59;56.13
75961;SHT30;64644;48.914;2.254;2023-06-26T01:40:43;23.54;56.55
75961;SHT30;64644;48.914;2.254;2023-06-26T01:43:41;23.51;56.38
75961;SHT30;64644;48.914;2.254;2023-06-26T01:46:36;23.49;56.60
75961;SHT30;64644;48.914;2.254;2023-06-26T01:54:46;23.31;56.24
75961;SHT30;64644;48.914;2.254;2023-06-26T01:57:14;23.21;56.01
75961;SHT30;64644;48.914;2.254;2023-06-26T01:59:42;23.13;56.14
75961;SHT30;64644;48.914;2.254;2023-06-26T02:02:07;23.07;55.93
75961;SHT30;64644;48.914;2.254;2023-06-26T02:04:33;23.03;56.29
75961;SHT30;64644;48.914;2.254;2023-06-26T02:06:59;23.00;56.36
75961;SHT30;64644;48.914;2.254;2023-06-26T02:09:24;22.96;56.31
75961;SHT30;64644;48.914;2.254;2023-06-26T02:11:49;22.93;56.21
75961;SHT30;64644;48.914;2.254;2023-06-26T02:14:14;22.90;56.05
75961;SHT30;64644;48.914;2.254;2023-06-26T02:16:40;22.82;55.88
75961;SHT30;64644;48.914;2.254;2023-06-26T02:19:05;22.73;56.06
75961;SHT30;64644;48.914;2.254;2023-06-26T02:21:31;22.70;55.87
75961;SHT30;64644;48.914;2.254;2023-06-26T02:23:56;22.62;55.81
75961;SHT30;64644;48.914;2.254;2023-06-26T02:26:21;22.60;56.00
75961;SHT30;64644;48.914;2.254;2023-06-26T02:28:47;22.59;56.08
75961;SHT30;64644;48.914;2.254;2023-06-26T02:31:12;22.59;56.01
75961;SHT30;64644;48.914;2.254;2023-06-26T02:33:38;22.55;55.63
75961;SHT30;64644;48.914;2.254;2023-06-26T02:36:04;22.48;55.84
75961;SHT30;64644;48.914;2.254;2023-06-26T02:38:29;22.41;56.04
75961;SHT30;64644;48.914;2.254;2023-06-26T02:40:55;22.44;56.10
75961;SHT30;64644;48.914;2.254;2023-06-26T02:43:20;22.42;56.06
75961;SHT30;64644;48.914;2.254;2023-06-26T02:45:45;22.42;56.03
75961;SHT30;64644;48.914;2.254;2023-06-26T02:48:11;22.38;56.16
75961;SHT30;64644;48.914;2.254;2023-06-26T02:50:36;22.35;56.32
75961;SHT30;64644;48.914;2.254;2023-06-26T02:53:01;22.31;56.42
75961;SHT30;64644;48.914;2.254;2023-06-26T02:55:27;22.25;56.55
75961;SHT30;64644;48.914;2.254;2023-06-26T02:57:52;22.21;56.57
75961;SHT30;64644;48.914;2.254;2023-06-26T03:00:17;22.20;56.57
75961;SHT30;64644;48.914;2.254;2023-06-26T03:02:43;22.18;56.69
75961;SHT30;64644;48.914;2.254;2023-06-26T03:05:08;22.15;56.80
75961;SHT30;64644;48.914;2.254;2023-06-26T03:07:33;22.11;56.52
75961;SHT30;64644;48.914;2.254;2023-06-26T03:09:59;22.04;56.69
75961;SHT30;64644;48.914;2.254;2023-06-26T03:12:25;21.97;56.91
75961;SHT30;64644;48.914;2.254;2023-06-26T03:14:50;21.98;57.01
75961;SHT30;64644;48.914;2.254;2023-06-26T03:17:16;21.96;57.06
75961;SHT30;64644;48.914;2.254;2023-06-26T03:19:41;21.97;57.24
75961;SHT30;64644;48.914;2.254;2023-06-26T03:22:07;21.93;57.20
75961;SHT30;64644;48.914;2.254;2023-06-26T03:24:33;21.92;57.54
75961;SHT30;64644;48.914;2.254;2023-06-26T03:26:59;21.92;57.65
75961;SHT30;64644;48.914;2.254;2023-06-26T03:29:25;21.86;57.91
75961;SHT30;64644;48.914;2.254;2023-06-26T03:31:50;21.82;58.03
75961;SHT30;64644;48.914;2.254;2023-06-26T03:34:15;21.80;58.16
75961;SHT30;64644;48.914;2.254;2023-06-26T03:36:41;21.73;58.15
75961;SHT30;64644;48.914;2.254;2023-06-26T03:39:06;21.73;58.38
75961;SHT30;64644;48.914;2.254;2023-06-26T03:41:31;21.70;58.53
75961;SHT30;64644;48.914;2.254;2023-06-26T03:43:57;21.70;58.25
75961;SHT30;64644;48.914;2.254;2023-06-26T03:46:22;21.67;58.37
75961;SHT30;64644;48.914;2.254;2023-06-26T03:48:48;21.66;58.14
75961;SHT30;64644;48.914;2.254;2023-06-26T03:51:13;21.65;58.29
75961;SHT30;64644;48.914;2.254;2023-06-26T03:53:39;21.66;58.51
75961;SHT30;64644;48.914;2.254;2023-06-26T03:56:04;21.62;58.90
75961;SHT30;64644;48.914;2.254;2023-06-26T03:58:29;21.61;58.99
75961;SHT30;64644;48.914;2.254;2023-06-26T04:00:55;21.59;58.94
75961;SHT30;64644;48.914;2.254;2023-06-26T04:03:20;21.56;59.04
75961;SHT30;64644;48.914;2.254;2023-06-26T04:05:46;21.58;58.80
75961;SHT30;64644;48.914;2.254;2023-06-26T04:08:11;21.58;59.07
75961;SHT30;64644;48.914;2.254;2023-06-26T04:10:36;21.59;59.08
75961;SHT30;64644;48.914;2.254;2023-06-26T04:13:02;21.59;59.27
75961;SHT30;64644;48.914;2.254;2023-06-26T04:15:27;21.55;58.99
75961;SHT30;64644;48.914;2.254;2023-06-26T04:17:53;21.59;58.92
75961;SHT30;64644;48.914;2.254;2023-06-26T04:20:18;21.59;59.03
75961;SHT30;64644;48.914;2.254;2023-06-26T04:22:44;21.56;59.19
75961;SHT30;64644;48.914;2.254;2023-06-26T04:25:09;21.52;59.31
75961;SHT30;64644;48.914;2.254;2023-06-26T04:27:37;21.49;59.47
75961;SHT30;64644;48.914;2.254;2023-06-26T04:30:02;21.46;59.27
75961;SHT30;64644;48.914;2.254;2023-06-26T04:32:27;21.49;59.41
75961;SHT30;64644;48.914;2.254;2023-06-26T04:34:53;21.48;59.48
75961;SHT30;64644;48.914;2.254;2023-06-26T04:37:19;21.48;59.58
75961;SHT30;64644;48.914;2.254;2023-06-26T04:39:44;21.44;59.65
75961;SHT30;64644;48.914;2.254;2023-06-26T04:42:10;21.44;59.66
75961;SHT30;64644;48.914;2.254;2023-06-26T04:44:37;21.48;59.67
75961;SHT30;64644;48.914;2.254;2023-06-26T04:47:03;21.45;59.72
75961;SHT30;64644;48.914;2.254;2023-06-26T04:49:28;21.45;59.62
75961;SHT30;64644;48.914;2.254;2023-06-26T04:51:55;21.46;59.73
75961;SHT30;64644;48.914;2.254;2023-06-26T04:54:20;21.41;59.69
75961;SHT30;64644;48.914;2.254;2023-06-26T04:56:46;21.39;59.48
75961;SHT30;64644;48.914;2.254;2023-06-26T04:59:12;21.38;59.77
75961;SHT30;64644;48.914;2.254;2023-06-26T05:01:39;21.34;59.98
75961;SHT30;64644;48.914;2.254;2023-06-26T05:04:05;21.31;60.06
75961;SHT30;64644;48.914;2.254;2023-06-26T05:06:31;21.32;60.11
75961;SHT30;64644;48.914;2.254;2023-06-26T05:08:56;21.30;60.15
75961;SHT30;64644;48.914;2.254;2023-06-26T05:11:21;21.32;60.15
75961;SHT30;64644;48.914;2.254;2023-06-26T05:13:47;21.28;59.54
75961;SHT30;64644;48.914;2.254;2023-06-26T05:16:12;21.21;60.09
75961;SHT30;64644;48.914;2.254;2023-06-26T05:18:37;21.20;60.42
75961;SHT30;64644;48.914;2.254;2023-06-26T05:21:03;21.15;60.34
75961;SHT30;64644;48.914;2.254;2023-06-26T05:23:32;21.08;60.34
75961;SHT30;64644;48.914;2.254;2023-06-26T05:25:59;21.07;60.42
75961;SHT30;64644;48.914;2.254;2023-06-26T05:28:25;21.11;60.68
75961;SHT30;64644;48.914;2.254;2023-06-26T05:30:52;21.10;60.70
75961;SHT30;64644;48.914;2.254;2023-06-26T05:33:18;21.08;60.80
75961;SHT30;64644;48.914;2.254;2023-06-26T05:35:48;21.12;60.87
75961;SHT30;64644;48.914;2.254;2023-06-26T05:38:13;21.07;60.92
75961;SHT30;64644;48.914;2.254;2023-06-26T05:40:40;21.07;60.77
75961;SHT30;64644;48.914;2.254;2023-06-26T05:43:06;21.10;60.86
75961;SHT30;64644;48.914;2.254;2023-06-26T05:45:32;21.10;60.79
75961;SHT30;64644;48.914;2.254;2023-06-26T05:47:57;21.12;60.65
75961;SHT30;64644;48.914;2.254;2023-06-26T05:50:23;21.12;60.92
75961;SHT30;64644;48.914;2.254;2023-06-26T05:52:49;21.11;60.56
75961;SHT30;64644;48.914;2.254;2023-06-26T05:55:14;21.14;60.57
75961;SHT30;64644;48.914;2.254;2023-06-26T05:57:40;21.15;60.73
75961;SHT30;64644;48.914;2.254;2023-06-26T06:00:06;21.20;60.82
75961;SHT30;64644;48.914;2.254;2023-06-26T06:02:36;21.24;60.57
75961;SHT30;64644;48.914;2.254;2023-06-26T06:05:01;21.27;60.68
75961;SHT30;64644;48.914;2.254;2023-06-26T06:07:27;21.30;60.49
75961;SHT30;64644;48.914;2.254;2023-06-26T06:09:52;21.31;60.34
75961;SHT30;64644;48.914;2.254;2023-06-26T06:12:17;21.34;60.24
75961;SHT30;64644;48.914;2.254;2023-06-26T06:14:43;21.35;60.04
75961;SHT30;64644;48.914;2.254;2023-06-26T06:17:08;21.39;60.17
75961;SHT30;64644;48.914;2.254;2023-06-26T06:19:33;21.42;60.21
75961;SHT30;64644;48.914;2.254;2023-06-26T06:21:59;21.46;60.02
75961;SHT30;64644;48.914;2.254;2023-06-26T06:24:24;21.51;59.97
75961;SHT30;64644;48.914;2.254;2023-06-26T06:26:49;21.51;59.98
75961;SHT30;64644;48.914;2.254;2023-06-26T06:29:14;21.44;59.95
75961;SHT30;64644;48.914;2.254;2023-06-26T06:31:40;21.44;59.72
75961;SHT30;64644;48.914;2.254;2023-06-26T06:34:05;21.42;59.62
75961;SHT30;64644;48.914;2.254;2023-06-26T06:36:30;21.42;59.72
75961;SHT30;64644;48.914;2.254;2023-06-26T06:38:56;21.42;59.65
75961;SHT30;64644;48.914;2.254;2023-06-26T06:41:21;21.45;59.55
75961;SHT30;64644;48.914;2.254;2023-06-26T06:43:47;21.46;59.66
75961;SHT30;64644;48.914;2.254;2023-06-26T06:46:12;21.51;59.35
75961;SHT30;64644;48.914;2.254;2023-06-26T06:48:37;21.55;59.39
75961;SHT30;64644;48.914;2.254;2023-06-26T06:51:03;21.59;59.32
75961;SHT30;64644;48.914;2.254;2023-06-26T06:53:28;21.63;59.33
75961;SHT30;64644;48.914;2.254;2023-06-26T06:55:54;21.65;59.21
75961;SHT30;64644;48.914;2.254;2023-06-26T06:58:19;21.66;59.09
75961;SHT30;64644;48.914;2.254;2023-06-26T07:00:45;21.62;59.04
75961;SHT30;64644;48.914;2.254;2023-06-26T07:03:10;21.67;58.88
75961;SHT30;64644;48.914;2.254;2023-06-26T07:05:36;21.67;58.91
75961;SHT30;64644;48.914;2.254;2023-06-26T07:08:02;21.72;58.93
75961;SHT30;64644;48.914;2.254;2023-06-26T07:10:28;21.78;58.88
75961;SHT30;64644;48.914;2.254;2023-06-26T07:12:53;21.78;58.51
75961;SHT30;64644;48.914;2.254;2023-06-26T07:15:19;21.83;58.46
75961;SHT30;64644;48.914;2.254;2023-06-26T07:17:44;21.89;58.56
75961;SHT30;64644;48.914;2.254;2023-06-26T07:20:10;21.98;58.41
75961;SHT30;64644;48.914;2.254;2023-06-26T07:22:40;22.04;58.44
75961;SHT30;64644;48.914;2.254;2023-06-26T07:25:06;22.15;58.29
75961;SHT30;64644;48.914;2.254;2023-06-26T07:27:34;22.20;57.69
75961;SHT30;64644;48.914;2.254;2023-06-26T07:29:59;22.20;57.58
75961;SHT30;64644;48.914;2.254;2023-06-26T07:32:25;22.27;57.67
75961;SHT30;64644;48.914;2.254;2023-06-26T07:34:50;22.30;57.27
75961;SHT30;64644;48.914;2.254;2023-06-26T07:37:15;22.31;57.17
75961;SHT30;64644;48.914;2.254;2023-06-26T07:39:41;22.32;57.03
75961;SHT30;64644;48.914;2.254;2023-06-26T07:42:06;22.34;57.12
75961;SHT30;64644;48.914;2.254;2023-06-26T07:44:31;22.37;57.08
75961;SHT30;64644;48.914;2.254;2023-06-26T07:46:57;22.37;56.94
75961;SHT30;64644;48.914;2.254;2023-06-26T07:49:23;22.32;56.80
75961;SHT30;64644;48.914;2.254;2023-06-26T07:51:48;22.28;56.69
75961;SHT30;64644;48.914;2.254;2023-06-26T07:54:13;22.24;56.79
75961;SHT30;64644;48.914;2.254;2023-06-26T07:57:03;22.31;56.79
75961;SHT30;64644;48.914;2.254;2023-06-26T07:59:31;22.35;56.65
75961;SHT30;64644;48.914;2.254;2023-06-26T08:01:57;22.42;56.37
75961;SHT30;64644;48.914;2.254;2023-06-26T08:04:25;22.49;56.46
75961;SHT30;64644;48.914;2.254;2023-06-26T08:06:55;22.55;56.46
75961;SHT30;64644;48.914;2.254;2023-06-26T08:09:23;22.65;56.26
75961;SHT30;64644;48.914;2.254;2023-06-26T08:11:49;22.72;56.04
75961;SHT30;64644;48.914;2.254;2023-06-26T08:14:15;22.80;55.59
75961;SHT30;64644;48.914;2.254;2023-06-26T08:16:42;22.83;55.38
75961;SHT30;64644;48.914;2.254;2023-06-26T08:19:09;22.83;55.23
75961;SHT30;64644;48.914;2.254;2023-06-26T08:21:34;22.83;55.04
75961;SHT30;64644;48.914;2.254;2023-06-26T08:24:00;22.83;54.90
75961;SHT30;64644;48.914;2.254;2023-06-26T08:26:25;22.86;54.86
75961;SHT30;64644;48.914;2.254;2023-06-26T08:28:51;22.90;54.87
75961;SHT30;64644;48.914;2.254;2023-06-26T08:31:16;23.02;54.90
75961;SHT30;64644;48.914;2.254;2023-06-26T08:33:42;23.06;54.73
75961;SHT30;64644;48.914;2.254;2023-06-26T08:36:07;23.08;54.65
75961;SHT30;64644;48.914;2.254;2023-06-26T08:38:33;23.15;54.88
75961;SHT30;64644;48.914;2.254;2023-06-26T08:40:58;23.25;55.17
75961;SHT30;64644;48.914;2.254;2023-06-26T08:43:24;23.38;55.01
75961;SHT30;64644;48.914;2.254;2023-06-26T08:45:51;23.47;55.01
75961;SHT30;64644;48.914;2.254;2023-06-26T08:48:17;23.51;55.00
75961;SHT30;64644;48.914;2.254;2023-06-26T08:50:43;23.52;54.57
75961;SHT30;64644;48.914;2.254;2023-06-26T08:53:49;23.54;54.01
75961;SHT30;64644;48.914;2.254;2023-06-26T08:56:17;23.61;53.72
75961;SHT30;64644;48.914;2.254;2023-06-26T08:58:44;23.70;53.51
75961;SHT30;64644;48.914;2.254;2023-06-26T09:01:09;23.80;53.25
75961;SHT30;64644;48.914;2.254;2023-06-26T09:03:36;23.94;52.97
75961;SHT30;64644;48.914;2.254;2023-06-26T09:06:01;23.99;52.29
75961;SHT30;64644;48.914;2.254;2023-06-26T09:08:27;23.99;51.91
75961;SHT30;64644;48.914;2.254;2023-06-26T09:10:52;24.06;51.57
75961;SHT30;64644;48.914;2.254;2023-06-26T09:13:18;24.17;51.45
75961;SHT30;64644;48.914;2.254;2023-06-26T09:15:44;24.25;50.97
75961;SHT30;64644;48.914;2.254;2023-06-26T09:18:11;24.29;51.09
75961;SHT30;64644;48.914;2.254;2023-06-26T09:20:36;24.27;50.84
75961;SHT30;64644;48.914;2.254;2023-06-26T09:23:02;24.17;50.17
75961;SHT30;64644;48.914;2.254;2023-06-26T09:25:28;24.17;49.88
75961;SHT30;64644;48.914;2.254;2023-06-26T09:27:55;24.21;49.62
75961;SHT30;64644;48.914;2.254;2023-06-26T09:30:20;24.28;49.58
75961;SHT30;64644;48.914;2.254;2023-06-26T09:32:46;24.37;49.41
75961;SHT30;64644;48.914;2.254;2023-06-26T09:35:12;24.39;50.14
75961;SHT30;64644;48.914;2.254;2023-06-26T09:37:37;24.45;50.24
75961;SHT30;64644;48.914;2.254;2023-06-26T09:40:03;24.52;49.50
75961;SHT30;64644;48.914;2.254;2023-06-26T09:42:30;24.56;49.34
75961;SHT30;64644;48.914;2.254;2023-06-26T09:44:55;24.66;49.00
75961;SHT30;64644;48.914;2.254;2023-06-26T09:47:21;24.69;48.78
75961;SHT30;64644;48.914;2.254;2023-06-26T09:49:47;24.59;47.86
75961;SHT30;64644;48.914;2.254;2023-06-26T09:52:16;24.58;47.81
75961;SHT30;64644;48.914;2.254;2023-06-26T09:54:45;24.59;47.84
75961;SHT30;64644;48.914;2.254;2023-06-26T09:57:16;24.68;47.60
75961;SHT30;64644;48.914;2.254;2023-06-26T09:59:43;24.79;47.84
75961;SHT30;64644;48.914;2.254;2023-06-26T10:02:10;24.79;47.78
75961;SHT30;64644;48.914;2.254;2023-06-26T10:04:37;24.76;47.55
75961;SHT30;64644;48.914;2.254;2023-06-26T10:07:05;24.93;47.66
75961;SHT30;64644;48.914;2.254;2023-06-26T10:09:32;25.07;47.56
75961;SHT30;64644;48.914;2.254;2023-06-26T10:14:27;25.14;47.03
75961;SHT30;64644;48.914;2.254;2023-06-26T10:16:57;25.17;46.88
75961;SHT30;64644;48.914;2.254;2023-06-26T10:19:24;25.23;47.15
75961;SHT30;64644;48.914;2.254;2023-06-26T10:21:53;25.33;46.81
75961;SHT30;64644;48.914;2.254;2023-06-26T10:24:19;25.38;45.56
75961;SHT30;64644;48.914;2.254;2023-06-26T10:26:50;25.44;45.65
75961;SHT30;64644;48.914;2.254;2023-06-26T10:29:16;25.42;45.59
75961;SHT30;64644;48.914;2.254;2023-06-26T10:31:48;25.35;45.85
75961;SHT30;64644;48.914;2.254;2023-06-26T10:34:15;25.38;46.15
75961;SHT30;64644;48.914;2.254;2023-06-26T10:36:41;25.46;46.44
75961;SHT30;64644;48.914;2.254;2023-06-26T10:39:06;25.45;46.02
75961;SHT30;64644;48.914;2.254;2023-06-26T10:41:39;25.48;45.29
75961;SHT30;64644;48.914;2.254;2023-06-26T10:44:12;25.59;44.77
75961;SHT30;64644;48.914;2.254;2023-06-26T10:49:15;25.52;44.10
75961;SHT30;64644;48.914;2.254;2023-06-26T10:51:49;25.49;44.27
75961;SHT30;64644;48.914;2.254;2023-06-26T10:54:16;25.38;44.20
75961;SHT30;64644;48.914;2.254;2023-06-26T10:56:47;25.48;44.60
75961;SHT30;64644;48.914;2.254;2023-06-26T10:59:21;25.69;44.27
75961;SHT30;64644;48.914;2.254;2023-06-26T11:01:54;25.79;43.95
75961;SHT30;64644;48.914;2.254;2023-06-26T11:04:45;25.83;44.35
75961;SHT30;64644;48.914;2.254;2023-06-26T11:07:19;25.86;44.43
75961;SHT30;64644;48.914;2.254;2023-06-26T11:12:41;26.08;43.02
75961;SHT30;64644;48.914;2.254;2023-06-26T11:17:37;26.32;41.37
75961;SHT30;64644;48.914;2.254;2023-06-26T11:20:13;26.45;41.47
75961;SHT30;64644;48.914;2.254;2023-06-26T11:22:41;26.60;41.78
75961;SHT30;64644;48.914;2.254;2023-06-26T11:25:07;26.60;42.02
75961;SHT30;64644;48.914;2.254;2023-06-26T11:30:02;26.52;40.86
75961;SHT30;64644;48.914;2.254;2023-06-26T11:32:27;26.41;40.87
75961;SHT30;64644;48.914;2.254;2023-06-26T11:34:54;26.30;41.19
75961;SHT30;64644;48.914;2.254;2023-06-26T11:37:21;26.25;41.41
75961;SHT30;64644;48.914;2.254;2023-06-26T11:39:46;26.24;41.51
75961;SHT30;64644;48.914;2.254;2023-06-26T11:42:11;26.18;41.22
75961;SHT30;64644;48.914;2.254;2023-06-26T11:44:43;26.16;41.40
75961;SHT30;64644;48.914;2.254;2023-06-26T11:47:19;26.31;41.16
75961;SHT30;64644;48.914;2.254;2023-06-26T11:49:46;26.44;41.52
75961;SHT30;64644;48.914;2.254;2023-06-26T11:52:12;26.65;41.49
75961;SHT30;64644;48.914;2.254;2023-06-26T11:54:38;26.83;41.56
75961;SHT30;64644;48.914;2.254;2023-06-26T11:57:04;27.06;41.85
75961;SHT30;64644;48.914;2.254;2023-06-26T11:59:37;27.33;41.00
75961;SHT30;64644;48.914;2.254;2023-06-26T12:02:09;27.46;40.45
75961;SHT30;64644;48.914;2.254;2023-06-26T12:04:40;27.66;41.04
75961;SHT30;64644;48.914;2.254;2023-06-26T12:07:07;27.82;40.66
75961;SHT30;64644;48.914;2.254;2023-06-26T12:09:37;27.93;40.23
75961;SHT30;64644;48.914;2.254;2023-06-26T12:12:03;27.96;39.34
75961;SHT30;64644;48.914;2.254;2023-06-26T12:14:30;28.01;39.07
75961;SHT30;64644;48.914;2.254;2023-06-26T12:17:04;28.08;38.88
75961;SHT30;64644;48.914;2.254;2023-06-26T12:19:29;28.06;38.65
75961;SHT30;64644;48.914;2.254;2023-06-26T12:21:55;27.89;38.43
75961;SHT30;64644;48.914;2.254;2023-06-26T12:24:23;27.96;38.67
75961;SHT30;64644;48.914;2.254;2023-06-26T12:26:51;28.10;38.87
75961;SHT30;64644;48.914;2.254;2023-06-26T12:29:19;28.24;38.10
75961;SHT30;64644;48.914;2.254;2023-06-26T12:31:49;28.20;38.87
75961;SHT30;64644;48.914;2.254;2023-06-26T12:34:17;28.37;39.57
75961;SHT30;64644;48.914;2.254;2023-06-26T12:36:48;28.59;39.42
75961;SHT30;64644;48.914;2.254;2023-06-26T12:39:16;28.82;38.71
75961;SHT30;64644;48.914;2.254;2023-06-26T12:41:57;28.95;37.95
75961;SHT30;64644;48.914;2.254;2023-06-26T12:44:27;29.06;37.43
75961;SHT30;64644;48.914;2.254;2023-06-26T12:46:58;29.15;36.86
75961;SHT30;64644;48.914;2.254;2023-06-26T12:49:31;29.18;36.63
75961;SHT30;64644;48.914;2.254;2023-06-26T12:51:59;29.20;36.97
75961;SHT30;64644;48.914;2.254;2023-06-26T12:54:24;29.07;36.78
75961;SHT30;64644;48.914;2.254;2023-06-26T12:56:50;28.92;37.50
75961;SHT30;64644;48.914;2.254;2023-06-26T12:59:15;29.02;38.14
75961;SHT30;64644;48.914;2.254;2023-06-26T13:01:41;29.17;37.50
75961;SHT30;64644;48.914;2.254;2023-06-26T13:04:06;29.24;36.73
75961;SHT30;64644;48.914;2.254;2023-06-26T13:06:33;29.23;36.80
75961;SHT30;64644;48.914;2.254;2023-06-26T13:08:58;29.21;36.93
75961;SHT30;64644;48.914;2.254;2023-06-26T13:11:24;29.32;37.01
75961;SHT30;64644;48.914;2.254;2023-06-26T13:13:49;29.32;36.55
75961;SHT30;64644;48.914;2.254;2023-06-26T13:16:14;29.17;37.04
75961;SHT30;64644;48.914;2.254;2023-06-26T13:18:40;29.17;37.25
75961;SHT30;64644;48.914;2.254;2023-06-26T13:21:05;29.21;37.62
75961;SHT30;64644;48.914;2.254;2023-06-26T13:23:31;29.24;37.33
75961;SHT30;64644;48.914;2.254;2023-06-26T13:25:56;29.21;37.54
75961;SHT30;64644;48.914;2.254;2023-06-26T13:28:21;29.25;37.19
75961;SHT30;64644;48.914;2.254;2023-06-26T13:30:47;29.20;36.71
75961;SHT30;64644;48.914;2.254;2023-06-26T13:33:12;29.23;36.96
75961;SHT30;64644;48.914;2.254;2023-06-26T13:35:38;29.23;36.75
75961;SHT30;64644;48.914;2.254;2023-06-26T13:38:03;29.30;37.13
75961;SHT30;64644;48.914;2.254;2023-06-26T13:40:28;29.32;36.16
75961;SHT30;64644;48.914;2.254;2023-06-26T13:42:54;29.13;36.37
75961;SHT30;64644;48.914;2.254;2023-06-26T13:45:19;29.06;36.51
75961;SHT30;64644;48.914;2.254;2023-06-26T13:47:44;28.99;35.61
75961;SHT30;64644;48.914;2.254;2023-06-26T13:50:10;28.99;36.05
75961;SHT30;64644;48.914;2.254;2023-06-26T13:52:36;28.99;35.66
75961;SHT30;64644;48.914;2.254;2023-06-26T13:55:01;28.92;35.77
75961;SHT30;64644;48.914;2.254;2023-06-26T13:57:29;28.87;35.58
75961;SHT30;64644;48.914;2.254;2023-06-26T13:59:55;28.90;35.74
75961;SHT30;64644;48.914;2.254;2023-06-26T14:02:21;28.87;35.44
75961;SHT30;64644;48.914;2.254;2023-06-26T14:04:47;28.80;35.73
75961;SHT30;64644;48.914;2.254;2023-06-26T14:07:12;28.80;36.07
75961;SHT30;64644;48.914;2.254;2023-06-26T14:09:37;28.80;36.32
75961;SHT30;64644;48.914;2.254;2023-06-26T14:12:03;28.87;36.25
75961;SHT30;64644;48.914;2.254;2023-06-26T14:14:29;28.89;35.57
75961;SHT30;64644;48.914;2.254;2023-06-26T14:16:54;28.84;35.37
75961;SHT30;64644;48.914;2.254;2023-06-26T14:19:19;28.82;35.18
75961;SHT30;64644;48.914;2.254;2023-06-26T14:21:45;28.78;35.05
75961;SHT30;64644;48.914;2.254;2023-06-26T14:24:10;28.70;35.01
75961;SHT30;64644;48.914;2.254;2023-06-26T14:26:35;28.68;34.85
75961;SHT30;64644;48.914;2.254;2023-06-26T14:29:02;28.66;36.18
75961;SHT30;64644;48.914;2.254;2023-06-26T14:31:27;28.70;36.47
75961;SHT30;64644;48.914;2.254;2023-06-26T14:33:53;28.69;36.14
75961;SHT30;64644;48.914;2.254;2023-06-26T14:36:18;28.69;36.18
75961;SHT30;64644;48.914;2.254;2023-06-26T14:38:44;28.69;36.33
75961;SHT30;64644;48.914;2.254;2023-06-26T14:41:09;28.68;36.85
75961;SHT30;64644;48.914;2.254;2023-06-26T14:43:35;28.70;35.83
75961;SHT30;64644;48.914;2.254;2023-06-26T14:46:00;28.69;36.02
75961;SHT30;64644;48.914;2.254;2023-06-26T14:48:25;28.70;36.14
75961;SHT30;64644;48.914;2.254;2023-06-26T14:50:51;28.65;36.25
75961;SHT30;64644;48.914;2.254;2023-06-26T14:53:16;28.63;36.17
75961;SHT30;64644;48.914;2.254;2023-06-26T14:55:42;28.47;35.03
75961;SHT30;64644;48.914;2.254;2023-06-26T14:58:07;28.31;34.93
75961;SHT30;64644;48.914;2.254;2023-06-26T15:00:32;28.25;35.15
75961;SHT30;64644;48.914;2.254;2023-06-26T15:02:58;28.17;35.63
75961;SHT30;64644;48.914;2.254;2023-06-26T15:05:24;28.08;35.28
75961;SHT30;64644;48.914;2.254;2023-06-26T15:07:49;27.92;35.46
75961;SHT30;64644;48.914;2.254;2023-06-26T15:10:15;27.85;36.21
75961;SHT30;64644;48.914;2.254;2023-06-26T15:12:41;27.76;36.62
75961;SHT30;64644;48.914;2.254;2023-06-26T15:15:07;27.73;36.42
75961;SHT30;64644;48.914;2.254;2023-06-26T15:17:33;27.69;36.37
75961;SHT30;64644;48.914;2.254;2023-06-26T15:19:59;27.63;36.55
75961;SHT30;64644;48.914;2.254;2023-06-26T15:22:26;27.56;36.95
75961;SHT30;64644;48.914;2.254;2023-06-26T15:24:51;27.45;36.90
75961;SHT30;64644;48.914;2.254;2023-06-26T15:27:17;27.39;37.16
75961;SHT30;64644;48.914;2.254;2023-06-26T15:29:42;27.37;36.65
75961;SHT30;64644;48.914;2.254;2023-06-26T15:32:08;27.33;36.27
75961;SHT30;64644;48.914;2.254;2023-06-26T15:34:33;27.26;35.84
75961;SHT30;64644;48.914;2.254;2023-06-26T15:36:58;27.20;35.89
75961;SHT30;64644;48.914;2.254;2023-06-26T15:39:24;27.21;36.44
75961;SHT30;64644;48.914;2.254;2023-06-26T15:41:49;27.24;36.95
75961;SHT30;64644;48.914;2.254;2023-06-26T15:44:15;27.24;36.94
75961;SHT30;64644;48.914;2.254;2023-06-26T15:46:40;27.23;36.47
75961;SHT30;64644;48.914;2.254;2023-06-26T15:49:05;27.18;36.65